sensor_id;sensor_type;location;lat;lon;timestamp;pressure;altitude;pressure_sealevel;temperature;humidity
44144;BME280;43510;51.920;4.492;2022-12-11T00:00:48;66360.81;;;4.47;100.00
44144;BME280;43510;51.920;4.492;2022-12-11T00:03:17;66357.69;;;4.46;100.00
44144;BME280;43510;51.920;4.492;2022-12-11T00:05:44;66354.00;;;4.45;100.00
44144;BME280;43510;51.920;4.492;2022-12-11T00:08:10;66361.78;;;4.45;100.00
44144;BME280;43510;51.920;4.492;2022-12-11T00:10:36;66359.34;;;4.48;100.00
44144;BME280;43510;51.920;4.492;2022-12-11T00:13:02;66355.13;;;4.39;100.00
44144;BME280;43510;51.920;4.492;2022-12-11T00:15:28;66354.00;;;4.38;100.00
44144;BME280;43510;51.920;4.492;2022-12-11T00:17:54;66348.63;;;4.36;100.00
44144;BME280;43510;51.920;4.492;2022-12-11T00:20:19;66348.63;;;4.36;100.00
44144;BME280;43510;51.920;4.492;2022-12-11T00:22:45;66350.84;;;4.38;100.00
44144;BME280;43510;51.920;4.492;2022-12-11T00:25:10;66348.63;;;4.43;100.00
44144;BME280;43510;51.920;4.492;2022-12-11T00:27:36;66346.59;;;4.36;100.00
44144;BME280;43510;51.920;4.492;2022-12-11T00:30:03;66364.34;;;4.53;100.00
44144;BME280;43510;51.920;4.492;2022-12-11T00:32:29;66363.97;;;4.47;100.00
44144;BME280;43510;51.920;4.492;2022-12-11T00:34:56;66361.94;;;4.48;100.00
44144;BME280;43510;51.920;4.492;2022-12-11T00:37:21;66356.03;;;4.45;100.00
44144;BME280;43510;51.920;4.492;2022-12-11T00:39:46;66355.81;;;4.49;100.00
44144;BME280;43510;51.920;4.492;2022-12-11T00:42:12;66363.06;;;4.49;100.00
44144;BME280;43510;51.920;4.492;2022-12-11T00:44:37;66366.94;;;4.53;100.00
44144;BME280;43510;51.920;4.492;2022-12-11T00:47:03;66367.66;;;4.56;100.00
44144;BME280;43510;51.920;4.492;2022-12-11T00:49:28;66368.78;;;4.57;100.00
44144;BME280;43510;51.920;4.492;2022-12-11T00:51:53;66374.34;;;4.62;100.00
44144;BME280;43510;51.920;4.492;2022-12-11T00:54:19;66376.94;;;4.62;100.00
44144;BME280;43510;51.920;4.492;2022-12-11T00:56:44;66375.44;;;4.63;100.00
44144;BME280;43510;51.920;4.492;2022-12-11T00:59:10;66380.25;;;4.65;100.00
44144;BME280;43510;51.920;4.492;2022-12-11T01:01:35;66382.84;;;4.65;100.00
44144;BME280;43510;51.920;4.492;2022-12-11T01:04:00;66387.09;;;4.73;100.00
44144;BME280;43510;51.920;4.492;2022-12-11T01:06:27;66384.31;;;4.71;100.00
44144;BME280;43510;51.920;4.492;2022-12-11T01:08:53;66393.19;;;4.79;100.00
44144;BME280;43510;51.920;4.492;2022-12-11T01:11:37;66397.28;;;4.78;100.00
44144;BME280;43510;51.920;4.492;2022-12-11T01:14:03;66390.97;;;4.77;100.00
44144;BME280;43510;51.920;4.492;2022-12-11T01:16:29;66383.56;;;4.75;100.00
44144;BME280;43510;51.920;4.492;2022-12-11T01:18:56;66397.28;;;4.78;100.00
44144;BME280;43510;51.920;4.492;2022-12-11T01:21:21;66387.66;;;4.74;100.00
44144;BME280;43510;51.920;4.492;2022-12-11T01:23:49;66389.31;;;4.75;100.00
44144;BME280;43510;51.920;4.492;2022-12-11T01:26:14;66387.47;;;4.71;100.00
44144;BME280;43510;51.920;4.492;2022-12-11T01:28:41;66381.34;;;4.66;100.00
44144;BME280;43510;51.920;4.492;2022-12-11T01:31:08;66382.84;;;4.65;100.00
44144;BME280;43510;51.920;4.492;2022-12-11T01:33:34;66375.09;;;4.58;100.00
44144;BME280;43510;51.920;4.492;2022-12-11T01:35:59;66378.22;;;4.65;100.00
44144;BME280;43510;51.920;4.492;2022-12-11T01:38:25;66378.41;;;4.61;100.00
44144;BME280;43510;51.920;4.492;2022-12-11T01:40:50;66373.22;;;4.61;100.00
44144;BME280;43510;51.920;4.492;2022-12-11T01:43:18;66373.59;;;4.59;100.00
44144;BME280;43510;51.920;4.492;2022-12-11T01:45:46;66364.72;;;4.50;100.00
44144;BME280;43510;51.920;4.492;2022-12-11T01:48:18;66368.22;;;4.56;100.00
44144;BME280;43510;51.920;4.492;2022-12-11T01:50:54;66375.09;;;4.58;100.00
44144;BME280;43510;51.920;4.492;2022-12-11T01:53:26;66371.00;;;4.59;100.00
44144;BME280;43510;51.920;4.492;2022-12-11T01:55:54;66362.69;;;4.51;100.00
44144;BME280;43510;51.920;4.492;2022-12-11T01:58:25;66369.53;;;4.53;100.00
44144;BME280;43510;51.920;4.492;2022-12-11T02:00:51;66364.34;;;4.53;100.00
44144;BME280;43510;51.920;4.492;2022-12-11T02:03:18;66362.50;;;4.48;100.00
44144;BME280;43510;51.920;4.492;2022-12-11T02:05:44;66365.09;;;4.48;100.00
44144;BME280;43510;51.920;4.492;2022-12-11T02:08:09;66362.50;;;4.48;100.00
44144;BME280;43510;51.920;4.492;2022-12-11T02:13:22;66360.47;;;4.49;100.00
44144;BME280;43510;51.920;4.492;2022-12-11T02:16:16;66363.78;;;4.52;100.00
44144;BME280;43510;51.920;4.492;2022-12-11T02:21:27;66359.91;;;4.48;100.00
44144;BME280;43510;51.920;4.492;2022-12-11T02:24:03;66361.00;;;4.49;100.00
44144;BME280;43510;51.920;4.492;2022-12-11T02:27:02;66381.00;;;4.68;100.00
44144;BME280;43510;51.920;4.492;2022-12-11T02:29:36;66376.56;;;4.64;100.00
44144;BME280;43510;51.920;4.492;2022-12-11T02:32:13;66385.81;;;4.70;100.00
44144;BME280;43510;51.920;4.492;2022-12-11T02:34:48;66381.00;;;4.68;100.00
44144;BME280;43510;51.920;4.492;2022-12-11T02:37:20;66375.44;;;4.63;100.00
44144;BME280;43510;51.920;4.492;2022-12-11T02:39:47;66377.66;;;4.65;100.00
44144;BME280;43510;51.920;4.492;2022-12-11T02:42:14;66384.69;;;4.69;100.00
44144;BME280;43510;51.920;4.492;2022-12-11T02:44:41;66385.41;;;4.72;100.00
44144;BME280;43510;51.920;4.492;2022-12-11T02:47:11;66388.75;;;4.75;100.00
44144;BME280;43510;51.920;4.492;2022-12-11T02:49:40;66385.81;;;4.70;100.00
44144;BME280;43510;51.920;4.492;2022-12-11T02:52:06;66384.31;;;4.71;100.00
44144;BME280;43510;51.920;4.492;2022-12-11T02:54:36;66386.91;;;4.71;100.00
44144;BME280;43510;51.920;4.492;2022-12-11T02:59:33;66396.16;;;4.77;100.00
44144;BME280;43510;51.920;4.492;2022-12-11T03:02:00;66384.31;;;4.71;100.00
44144;BME280;43510;51.920;4.492;2022-12-11T03:04:27;66387.09;;;4.73;100.00
44144;BME280;43510;51.920;4.492;2022-12-11T03:06:55;66390.25;;;4.74;100.00
44144;BME280;43510;51.920;4.492;2022-12-11T03:09:25;66394.31;;;4.80;100.00
44144;BME280;43510;51.920;4.492;2022-12-11T03:11:51;66401.16;;;4.81;100.00
44144;BME280;43510;51.920;4.492;2022-12-11T03:14:17;66393.19;;;4.79;100.00
44144;BME280;43510;51.920;4.492;2022-12-11T03:17:04;66399.47;;;4.87;100.00
44144;BME280;43510;51.920;4.492;2022-12-11T03:22:27;66399.69;;;4.82;100.00
44144;BME280;43510;51.920;4.492;2022-12-11T03:25:19;66407.44;;;4.89;100.00
44144;BME280;43510;51.920;4.492;2022-12-11T03:27:54;66393.19;;;4.79;100.00
44144;BME280;43510;51.920;4.492;2022-12-11T03:30:23;66391.34;;;4.75;100.00
44144;BME280;43510;51.920;4.492;2022-12-11T03:32:52;66389.31;;;4.75;100.00
44144;BME280;43510;51.920;4.492;2022-12-11T03:35:24;66389.88;;;4.76;100.00
44144;BME280;43510;51.920;4.492;2022-12-11T03:37:52;66394.31;;;4.80;100.00
44144;BME280;43510;51.920;4.492;2022-12-11T03:40:20;66398.56;;;4.81;100.00
44144;BME280;43510;51.920;4.492;2022-12-11T03:42:50;66394.31;;;4.80;100.00
44144;BME280;43510;51.920;4.492;2022-12-11T03:45:18;66390.97;;;4.77;100.00
44144;BME280;43510;51.920;4.492;2022-12-11T03:47:45;66390.97;;;4.77;100.00
44144;BME280;43510;51.920;4.492;2022-12-11T03:50:13;66395.63;;;4.76;100.00
44144;BME280;43510;51.920;4.492;2022-12-11T03:52:42;66387.66;;;4.74;100.00
44144;BME280;43510;51.920;4.492;2022-12-11T03:55:11;66391.34;;;4.75;100.00
44144;BME280;43510;51.920;4.492;2022-12-11T03:57:37;66390.97;;;4.77;100.00
44144;BME280;43510;51.920;4.492;2022-12-11T04:00:05;66388.75;;;4.75;100.00
44144;BME280;43510;51.920;4.492;2022-12-11T04:02:30;66393.56;;;4.77;100.00
44144;BME280;43510;51.920;4.492;2022-12-11T04:04:56;66394.31;;;4.80;100.00
44144;BME280;43510;51.920;4.492;2022-12-11T04:07:21;66393.75;;;4.79;100.00
44144;BME280;43510;51.920;4.492;2022-12-11T04:09:47;66394.88;;;4.80;100.00
44144;BME280;43510;51.920;4.492;2022-12-11T04:12:12;66386.91;;;4.71;100.00
44144;BME280;43510;51.920;4.492;2022-12-11T04:14:38;66392.47;;;4.76;100.00
44144;BME280;43510;51.920;4.492;2022-12-11T04:17:21;66388.75;;;4.75;100.00
44144;BME280;43510;51.920;4.492;2022-12-11T04:20:06;66387.28;;;4.76;100.00
44144;BME280;43510;51.920;4.492;2022-12-11T04:22:50;66386.53;;;4.73;100.00
44144;BME280;43510;51.920;4.492;2022-12-11T04:25:34;66385.06;;;4.67;100.00
44144;BME280;43510;51.920;4.492;2022-12-11T04:27:59;66385.25;;;4.69;100.00
44144;BME280;43510;51.920;4.492;2022-12-11T04:30:25;66390.81;;;4.74;100.00
44144;BME280;43510;51.920;4.492;2022-12-11T04:32:52;66383.22;;;4.70;100.00
44144;BME280;43510;51.920;4.492;2022-12-11T04:35:19;66382.09;;;4.69;100.00
44144;BME280;43510;51.920;4.492;2022-12-11T04:37:45;66381.34;;;4.66;100.00
44144;BME280;43510;51.920;4.492;2022-12-11T04:40:14;66382.31;;;4.64;100.00
44144;BME280;43510;51.920;4.492;2022-12-11T04:42:40;66374.13;;;4.59;100.00
44144;BME280;43510;51.920;4.492;2022-12-11T04:45:06;66375.44;;;4.63;100.00
44144;BME280;43510;51.920;4.492;2022-12-11T04:47:35;66375.44;;;4.63;100.00
44144;BME280;43510;51.920;4.492;2022-12-11T04:50:04;66374.34;;;4.62;100.00
44144;BME280;43510;51.920;4.492;2022-12-11T04:52:30;66383.22;;;4.70;100.00
44144;BME280;43510;51.920;4.492;2022-12-11T04:54:56;66382.47;;;4.67;100.00
44144;BME280;43510;51.920;4.492;2022-12-11T04:57:21;66383.41;;;4.65;100.00
44144;BME280;43510;51.920;4.492;2022-12-11T04:59:47;66377.66;;;4.65;100.00
44144;BME280;43510;51.920;4.492;2022-12-11T05:02:13;66382.09;;;4.69;100.00
44144;BME280;43510;51.920;4.492;2022-12-11T05:04:39;66377.66;;;4.65;100.00
44144;BME280;43510;51.920;4.492;2022-12-11T05:07:05;66384.31;;;4.71;100.00
44144;BME280;43510;51.920;4.492;2022-12-11T05:09:30;66379.88;;;4.67;100.00
44144;BME280;43510;51.920;4.492;2022-12-11T05:11:56;66378.75;;;4.66;100.00
44144;BME280;43510;51.920;4.492;2022-12-11T05:14:22;66375.81;;;4.68;100.00
44144;BME280;43510;51.920;4.492;2022-12-11T05:16:48;66385.81;;;4.70;100.00
44144;BME280;43510;51.920;4.492;2022-12-11T05:19:13;66375.44;;;4.63;100.00
44144;BME280;43510;51.920;4.492;2022-12-11T05:21:38;66375.44;;;4.63;100.00
44144;BME280;43510;51.920;4.492;2022-12-11T05:24:04;66376.56;;;4.64;100.00
44144;BME280;43510;51.920;4.492;2022-12-11T05:26:29;66375.09;;;4.58;100.00
44144;BME280;43510;51.920;4.492;2022-12-11T05:28:55;66366.56;;;4.55;100.00
44144;BME280;43510;51.920;4.492;2022-12-11T05:31:23;66362.69;;;4.51;100.00
44144;BME280;43510;51.920;4.492;2022-12-11T05:33:49;66356.59;;;4.45;100.00
44144;BME280;43510;51.920;4.492;2022-12-11T05:38:44;66355.28;;;4.42;100.00
44144;BME280;43510;51.920;4.492;2022-12-11T05:41:13;66345.47;;;4.35;100.00
44144;BME280;43510;51.920;4.492;2022-12-11T05:43:38;66347.69;;;4.37;100.00
44144;BME280;43510;51.920;4.492;2022-12-11T05:46:15;66347.91;;;4.33;100.00
44144;BME280;43510;51.920;4.492;2022-12-11T05:48:42;66341.59;;;4.32;100.00
44144;BME280;43510;51.920;4.492;2022-12-11T05:51:09;66343.63;;;4.31;100.00
44144;BME280;43510;51.920;4.492;2022-12-11T05:53:36;66340.31;;;4.28;100.00
44144;BME280;43510;51.920;4.492;2022-12-11T05:56:04;66342.16;;;4.32;100.00
44144;BME280;43510;51.920;4.492;2022-12-11T05:58:30;66342.88;;;4.35;100.00
44144;BME280;43510;51.920;4.492;2022-12-11T06:00:56;66349.38;;;4.39;100.00
44144;BME280;43510;51.920;4.492;2022-12-11T06:03:21;66351.03;;;4.40;100.00
44144;BME280;43510;51.920;4.492;2022-12-11T06:05:48;66356.22;;;4.40;100.00
44144;BME280;43510;51.920;4.492;2022-12-11T06:08:13;66352.53;;;4.39;100.00
44144;BME280;43510;51.920;4.492;2022-12-11T06:10:47;66357.50;;;4.44;100.00
44144;BME280;43510;51.920;4.492;2022-12-11T06:13:13;66354.16;;;4.41;100.00
44144;BME280;43510;51.920;4.492;2022-12-11T06:15:38;66350.84;;;4.38;100.00
44144;BME280;43510;51.920;4.492;2022-12-11T06:18:04;66354.56;;;4.39;100.00
44144;BME280;43510;51.920;4.492;2022-12-11T06:20:31;66342.16;;;4.32;100.00
44144;BME280;43510;51.920;4.492;2022-12-11T06:22:57;66349.56;;;4.34;100.00
44144;BME280;43510;51.920;4.492;2022-12-11T06:25:23;66353.25;;;4.42;100.00
44144;BME280;43510;51.920;4.492;2022-12-11T06:27:49;66357.31;;;4.41;100.00
44144;BME280;43510;51.920;4.492;2022-12-11T06:30:15;66349.94;;;4.39;100.00
44144;BME280;43510;51.920;4.492;2022-12-11T06:32:41;66353.81;;;4.43;100.00
44144;BME280;43510;51.920;4.492;2022-12-11T06:35:07;66354.34;;;4.43;100.00
44144;BME280;43510;51.920;4.492;2022-12-11T06:37:34;66358.63;;;4.45;100.00
44144;BME280;43510;51.920;4.492;2022-12-11T06:39:59;66354.91;;;4.44;100.00
44144;BME280;43510;51.920;4.492;2022-12-11T06:42:25;66354.72;;;4.41;100.00
44144;BME280;43510;51.920;4.492;2022-12-11T06:44:50;66347.69;;;4.37;100.00
44144;BME280;43510;51.920;4.492;2022-12-11T06:47:17;66347.69;;;4.37;100.00
44144;BME280;43510;51.920;4.492;2022-12-11T06:49:42;66343.09;;;4.31;100.00
44144;BME280;43510;51.920;4.492;2022-12-11T06:52:07;66347.69;;;4.37;100.00
44144;BME280;43510;51.920;4.492;2022-12-11T06:54:33;66354.16;;;4.41;100.00
44144;BME280;43510;51.920;4.492;2022-12-11T06:56:58;66349.38;;;4.39;100.00
44144;BME280;43510;51.920;4.492;2022-12-11T06:59:23;66348.81;;;4.38;100.00
44144;BME280;43510;51.920;4.492;2022-12-11T07:01:49;66350.28;;;4.37;100.00
44144;BME280;43510;51.920;4.492;2022-12-11T07:04:15;66346.03;;;4.36;100.00
44144;BME280;43510;51.920;4.492;2022-12-11T07:06:40;66345.47;;;4.35;100.00
44144;BME280;43510;51.920;4.492;2022-12-11T07:09:05;66355.28;;;4.42;100.00
44144;BME280;43510;51.920;4.492;2022-12-11T07:11:31;66348.81;;;4.38;100.00
44144;BME280;43510;51.920;4.492;2022-12-11T07:14:00;66354.72;;;4.41;100.00
44144;BME280;43510;51.920;4.492;2022-12-11T07:16:25;66342.72;;;4.33;100.00
44144;BME280;43510;51.920;4.492;2022-12-11T07:18:51;66343.28;;;4.33;100.00
44144;BME280;43510;51.920;4.492;2022-12-11T07:21:18;66342.16;;;4.32;100.00
44144;BME280;43510;51.920;4.492;2022-12-11T07:23:45;66343.63;;;4.31;100.00
44144;BME280;43510;51.920;4.492;2022-12-11T07:26:14;66344.38;;;4.34;100.00
44144;BME280;43510;51.920;4.492;2022-12-11T07:28:40;66346.59;;;4.36;100.00
44144;BME280;43510;51.920;4.492;2022-12-11T07:31:14;66351.97;;;4.39;100.00
44144;BME280;43510;51.920;4.492;2022-12-11T07:33:40;66347.69;;;4.37;100.00
44144;BME280;43510;51.920;4.492;2022-12-11T07:36:07;66348.81;;;4.38;100.00
44144;BME280;43510;51.920;4.492;2022-12-11T07:38:34;66349.38;;;4.39;100.00
44144;BME280;43510;51.920;4.492;2022-12-11T07:41:04;66358.63;;;4.45;100.00
44144;BME280;43510;51.920;4.492;2022-12-11T07:43:30;66354.00;;;4.38;100.00
44144;BME280;43510;51.920;4.492;2022-12-11T07:46:17;66366.19;;;4.49;100.00
44144;BME280;43510;51.920;4.492;2022-12-11T07:48:44;66351.03;;;4.40;100.00
44144;BME280;43510;51.920;4.492;2022-12-11T07:51:16;66362.13;;;4.50;100.00
44144;BME280;43510;51.920;4.492;2022-12-11T07:53:44;66363.59;;;4.49;99.35
44144;BME280;43510;51.920;4.492;2022-12-11T07:56:10;66356.59;;;4.45;99.37
44144;BME280;43510;51.920;4.492;2022-12-11T07:58:35;66363.78;;;4.52;99.08
44144;BME280;43510;51.920;4.492;2022-12-11T08:01:03;66364.72;;;4.50;99.50
44144;BME280;43510;51.920;4.492;2022-12-11T08:03:29;66361.56;;;4.50;99.61
44144;BME280;43510;51.920;4.492;2022-12-11T08:05:54;66370.81;;;4.56;98.95
44144;BME280;43510;51.920;4.492;2022-12-11T08:08:19;66363.25;;;4.51;98.67
44144;BME280;43510;51.920;4.492;2022-12-11T08:10:45;66369.00;;;4.52;98.51
44144;BME280;43510;51.920;4.492;2022-12-11T08:13:10;66360.47;;;4.49;98.85
44144;BME280;43510;51.920;4.492;2022-12-11T08:15:36;66372.50;;;4.58;99.05
44144;BME280;43510;51.920;4.492;2022-12-11T08:18:02;66363.25;;;4.51;98.92
44144;BME280;43510;51.920;4.492;2022-12-11T08:20:27;66370.47;;;4.58;98.67
44144;BME280;43510;51.920;4.492;2022-12-11T08:22:55;66374.34;;;4.62;98.99
44144;BME280;43510;51.920;4.492;2022-12-11T08:25:20;66367.88;;;4.58;99.26
44144;BME280;43510;51.920;4.492;2022-12-11T08:27:46;66367.66;;;4.56;99.17
44144;BME280;43510;51.920;4.492;2022-12-11T08:30:12;66370.25;;;4.56;99.72
44144;BME280;43510;51.920;4.492;2022-12-11T08:32:38;66372.88;;;4.56;99.46
44144;BME280;43510;51.920;4.492;2022-12-11T08:35:04;66369.34;;;4.57;99.56
44144;BME280;43510;51.920;4.492;2022-12-11T08:37:29;66371.38;;;4.57;99.81
44144;BME280;43510;51.920;4.492;2022-12-11T08:39:55;66369.16;;;4.55;99.47
44144;BME280;43510;51.920;4.492;2022-12-11T08:42:20;66366.56;;;4.55;99.37
44144;BME280;43510;51.920;4.492;2022-12-11T08:44:46;66366.75;;;4.57;99.60
44144;BME280;43510;51.920;4.492;2022-12-11T08:47:11;66371.00;;;4.59;99.69
44144;BME280;43510;51.920;4.492;2022-12-11T08:49:37;66367.13;;;4.55;99.96
44144;BME280;43510;51.920;4.492;2022-12-11T08:52:03;66374.34;;;4.62;100.00
44144;BME280;43510;51.920;4.492;2022-12-11T08:54:29;66381.75;;;4.64;100.00
44144;BME280;43510;51.920;4.492;2022-12-11T08:56:55;66369.72;;;4.55;100.00
44144;BME280;43510;51.920;4.492;2022-12-11T08:59:20;66375.81;;;4.61;100.00
44144;BME280;43510;51.920;4.492;2022-12-11T09:01:46;66388.41;;;4.70;99.81
44144;BME280;43510;51.920;4.492;2022-12-11T09:04:12;66375.06;;;4.65;99.81
44144;BME280;43510;51.920;4.492;2022-12-11T09:06:38;66371.00;;;4.59;100.00
44144;BME280;43510;51.920;4.492;2022-12-11T09:09:03;66373.22;;;4.61;100.00
44144;BME280;43510;51.920;4.492;2022-12-11T09:11:32;66378.03;;;4.63;100.00
44144;BME280;43510;51.920;4.492;2022-12-11T09:13:58;66374.34;;;4.62;100.00
44144;BME280;43510;51.920;4.492;2022-12-11T09:16:25;66377.28;;;4.60;100.00
44144;BME280;43510;51.920;4.492;2022-12-11T09:18:54;66382.84;;;4.65;100.00
44144;BME280;43510;51.920;4.492;2022-12-11T09:21:22;66375.44;;;4.63;100.00
44144;BME280;43510;51.920;4.492;2022-12-11T09:23:48;66369.16;;;4.55;100.00
44144;BME280;43510;51.920;4.492;2022-12-11T09:26:17;66368.78;;;4.57;100.00
44144;BME280;43510;51.920;4.492;2022-12-11T09:28:43;66372.84;;;4.63;100.00
44144;BME280;43510;51.920;4.492;2022-12-11T09:31:15;66380.25;;;4.65;100.00
44144;BME280;43510;51.920;4.492;2022-12-11T09:33:40;66423.00;;;5.04;100.00
44144;BME280;43510;51.920;4.492;2022-12-11T09:36:06;66395.06;;;4.76;100.00
44144;BME280;43510;51.920;4.492;2022-12-11T09:38:32;66379.31;;;4.66;100.00
44144;BME280;43510;51.920;4.492;2022-12-11T09:40:59;66386.91;;;4.71;100.00
44144;BME280;43510;51.920;4.492;2022-12-11T09:45:59;66400.22;;;4.83;100.00
44144;BME280;43510;51.920;4.492;2022-12-11T09:48:29;66399.28;;;4.84;100.00
44144;BME280;43510;51.920;4.492;2022-12-11T09:51:03;66394.69;;;4.78;100.00
44144;BME280;43510;51.920;4.492;2022-12-11T09:53:33;66392.81;;;4.81;100.00
44144;BME280;43510;51.920;4.492;2022-12-11T10:01:21;66400.22;;;4.83;100.00
44144;BME280;43510;51.920;4.492;2022-12-11T10:04:30;66414.09;;;4.96;100.00
44144;BME280;43510;51.920;4.492;2022-12-11T10:09:38;66419.47;;;5.05;100.00
44144;BME280;43510;51.920;4.492;2022-12-11T10:12:16;66426.50;;;5.09;100.00
44144;BME280;43510;51.920;4.492;2022-12-11T10:17:38;66435.03;;;5.12;100.00
44144;BME280;43510;51.920;4.492;2022-12-11T10:20:18;66434.81;;;5.17;100.00
44144;BME280;43510;51.920;4.492;2022-12-11T10:22:45;66429.66;;;5.10;100.00
44144;BME280;43510;51.920;4.492;2022-12-11T10:26:03;66439.81;;;5.21;100.00
44144;BME280;43510;51.920;4.492;2022-12-11T10:28:11;66446.84;;;5.25;100.00
44144;BME280;43510;51.920;4.492;2022-12-11T10:30:47;66434.63;;;5.14;100.00
44144;BME280;43510;51.920;4.492;2022-12-11T10:33:25;66426.50;;;5.09;100.00
44144;BME280;43510;51.920;4.492;2022-12-11T10:35:55;66417.59;;;5.01;100.00
44144;BME280;43510;51.920;4.492;2022-12-11T10:38:32;66423.53;;;5.04;100.00
44144;BME280;43510;51.920;4.492;2022-12-11T10:41:00;66414.28;;;4.98;100.00
44144;BME280;43510;51.920;4.492;2022-12-11T10:46:06;66413.53;;;4.95;100.00
44144;BME280;43510;51.920;4.492;2022-12-11T10:48:32;66405.78;;;4.88;100.00
44144;BME280;43510;51.920;4.492;2022-12-11T10:51:04;66407.06;;;4.91;100.00
44144;BME280;43510;51.920;4.492;2022-12-11T10:53:33;66405.59;;;4.85;100.00
44144;BME280;43510;51.920;4.492;2022-12-11T10:56:00;66398.38;;;4.86;100.00
44144;BME280;43510;51.920;4.492;2022-12-11T10:58:28;66400.97;;;4.86;100.00
44144;BME280;43510;51.920;4.492;2022-12-11T11:01:13;66417.81;;;4.97;100.00
44144;BME280;43510;51.920;4.492;2022-12-11T11:03:54;66413.38;;;4.92;100.00
44144;BME280;43510;51.920;4.492;2022-12-11T11:06:22;66400.97;;;4.86;100.00
44144;BME280;43510;51.920;4.492;2022-12-11T11:08:50;66407.63;;;4.92;100.00
44144;BME280;43510;51.920;4.492;2022-12-11T11:11:27;66409.09;;;4.91;100.00
44144;BME280;43510;51.920;4.492;2022-12-11T11:14:14;66410.38;;;4.94;100.00
44144;BME280;43510;51.920;4.492;2022-12-11T11:16:42;66405.03;;;4.85;100.00
44144;BME280;43510;51.920;4.492;2022-12-11T11:19:18;66414.28;;;4.98;100.00
44144;BME280;43510;51.920;4.492;2022-12-11T11:21:48;66411.13;;;4.98;100.00
44144;BME280;43510;51.920;4.492;2022-12-11T11:24:35;66423.19;;;5.06;100.00
44144;BME280;43510;51.920;4.492;2022-12-11T11:27:13;66426.50;;;5.02;100.00
44144;BME280;43510;51.920;4.492;2022-12-11T11:29:43;66418.56;;;5.00;100.00
44144;BME280;43510;51.920;4.492;2022-12-11T11:32:35;66431.47;;;5.14;100.00
44144;BME280;43510;51.920;4.492;2022-12-11T11:37:39;66419.28;;;5.03;100.00
44144;BME280;43510;51.920;4.492;2022-12-11T11:40:18;66439.09;;;5.18;100.00
44144;BME280;43510;51.920;4.492;2022-12-11T11:42:54;66432.03;;;5.14;100.00
44144;BME280;43510;51.920;4.492;2022-12-11T11:45:27;66434.28;;;5.16;100.00
44144;BME280;43510;51.920;4.492;2022-12-11T11:48:32;66448.16;;;5.29;100.00
44144;BME280;43510;51.920;4.492;2022-12-11T11:51:38;66446.28;;;5.25;100.00
44144;BME280;43510;51.920;4.492;2022-12-11T11:57:22;66447.59;;;5.28;100.00
44144;BME280;43510;51.920;4.492;2022-12-11T12:00:03;66450.19;;;5.28;100.00
44144;BME280;43510;51.920;4.492;2022-12-11T12:02:34;66444.81;;;5.26;100.00
44144;BME280;43510;51.920;4.492;2022-12-11T12:05:01;66444.25;;;5.25;100.00
44144;BME280;43510;51.920;4.492;2022-12-11T12:07:36;66460.34;;;5.40;100.00
44144;BME280;43510;51.920;4.492;2022-12-11T12:10:25;66465.91;;;5.45;100.00
44144;BME280;43510;51.920;4.492;2022-12-11T12:13:03;66465.34;;;5.45;99.36
44144;BME280;43510;51.920;4.492;2022-12-11T12:15:50;66468.69;;;5.48;99.08
44144;BME280;43510;51.920;4.492;2022-12-11T12:27:08;66443.13;;;5.24;98.90
44144;BME280;43510;51.920;4.492;2022-12-11T12:30:22;66433.53;;;5.13;98.49
44144;BME280;43510;51.920;4.492;2022-12-11T12:35:33;66444.25;;;5.25;99.06
44144;BME280;43510;51.920;4.492;2022-12-11T12:38:20;66438.69;;;5.20;98.83
44144;BME280;43510;51.920;4.492;2022-12-11T12:41:13;66451.31;;;5.29;98.18
44144;BME280;43510;51.920;4.492;2022-12-11T12:44:19;66446.69;;;5.23;97.13
44144;BME280;43510;51.920;4.492;2022-12-11T12:49:48;66450.75;;;5.29;96.32
44144;BME280;43510;51.920;4.492;2022-12-11T12:52:34;66440.19;;;5.19;96.23
44144;BME280;43510;51.920;4.492;2022-12-11T12:57:43;66420.94;;;5.04;96.45
44144;BME280;43510;51.920;4.492;2022-12-11T13:00:10;66417.06;;;5.01;96.15
44144;BME280;43510;51.920;4.492;2022-12-11T13:05:44;66417.25;;;4.96;96.28
44144;BME280;43510;51.920;4.492;2022-12-11T13:08:11;66411.13;;;4.98;96.30
44144;BME280;43510;51.920;4.492;2022-12-11T13:10:39;66411.50;;;4.96;96.03
44144;BME280;43510;51.920;4.492;2022-12-11T13:13:28;66424.81;;;5.08;96.21
44144;BME280;43510;51.920;4.492;2022-12-11T13:18:44;66426.88;;;5.07;95.39
44144;BME280;43510;51.920;4.492;2022-12-11T13:21:37;66441.84;;;5.21;94.86
44144;BME280;43510;51.920;4.492;2022-12-11T13:26:45;66442.41;;;5.21;95.06
44144;BME280;43510;51.920;4.492;2022-12-11T13:34:42;66427.59;;;5.10;94.58
44144;BME280;43510;51.920;4.492;2022-12-11T13:37:31;66436.88;;;5.16;93.74
44144;BME280;43510;51.920;4.492;2022-12-11T13:40:04;66432.44;;;5.12;93.46
44144;BME280;43510;51.920;4.492;2022-12-11T13:42:39;66436.88;;;5.16;94.13
44144;BME280;43510;51.920;4.492;2022-12-11T13:45:17;66435.75;;;5.15;94.48
44144;BME280;43510;51.920;4.492;2022-12-11T13:47:44;66424.66;;;5.05;94.02
44144;BME280;43510;51.920;4.492;2022-12-11T13:50:18;66428.16;;;5.11;94.87
44144;BME280;43510;51.920;4.492;2022-12-11T13:52:55;66428.38;;;5.06;94.65
44144;BME280;43510;51.920;4.492;2022-12-11T13:55:25;66415.22;;;4.97;94.89
44144;BME280;43510;51.920;4.492;2022-12-11T13:57:51;66414.28;;;4.98;95.44
44144;BME280;43510;51.920;4.492;2022-12-11T14:00:29;66415.97;;;5.00;94.55
44144;BME280;43510;51.920;4.492;2022-12-11T14:02:59;66402.63;;;4.87;94.52
44144;BME280;43510;51.920;4.492;2022-12-11T14:05:26;66407.06;;;4.91;95.09
44144;BME280;43510;51.920;4.492;2022-12-11T14:07:54;66410.38;;;4.94;94.64
44144;BME280;43510;51.920;4.492;2022-12-11T14:10:25;66420.19;;;5.01;95.12
44144;BME280;43510;51.920;4.492;2022-12-11T14:13:16;66425.78;;;5.06;94.70
44144;BME280;43510;51.920;4.492;2022-12-11T14:15:44;66410.38;;;4.94;94.75
44144;BME280;43510;51.920;4.492;2022-12-11T14:18:26;66414.66;;;4.96;94.50
44144;BME280;43510;51.920;4.492;2022-12-11T14:20:58;66408.38;;;4.88;95.34
44144;BME280;43510;51.920;4.492;2022-12-11T14:23:29;66413.53;;;4.95;95.35